Arnsberg, Germany

6:30 PM CEST on May 26, 2015 (GMT +0200)
Neheim City | | Change Station
CLOSE
Current Station
Personal Weather Station
Location: Arnsberg, NORDRHEIN-WESTFALEN
Elevation: 528 ft
Nearby Weather Stations

Elev 528 ft 51.45 °N, 7.96 °E | Updated 8 minutes ago

Mostly Cloudy
Mostly Cloudy
55.0 °F
Feels Like 55.0 °F
N
0.0
Wind Variable Wind from WSW
Gusts 5.0 mph

Today
High -- | Low -- °F
--% Chance of Precip.
Yesterday
High -- | Low -- °F
Precip. -- in
5:23 AM 9:28 PM
First Quarter, 59% visible
Pressure 30.15 in
Visibility 6.2 miles
Clouds Scattered Clouds 4000 ft
Mostly Cloudy 7800 ft
Dew Point 46 °F
Humidity 70%
Rainfall 0.00 in
Snow Depth Not available.
UV 1 out of 12
Pollen Not available.
Air Quality Not available.
Flu Activity Not available.
METAR EDLW 261620Z 34006KT 320V030 9999 SCT040 BKN078 13/03 Q1021 RMK ATIS A

More Conditions Fewer Conditions

Pressure 30.15 in
Visibility 6.2 miles
Clouds Scattered Clouds 4000 ft
Mostly Cloudy 7800 ft
Dew Point 46 °F
Humidity 70%
Rainfall 0.00 in
Snow Depth Not available.
UV 1 out of 12
Pollen Not available.
Air Quality Not available.
Flu Activity Not available.
METAR EDLW 261620Z 34006KT 320V030 9999 SCT040 BKN078 13/03 Q1021 RMK ATIS A

More Conditions Fewer Conditions

10-Day Weather Forecast

Almanac

Astronomy

May. 26, 2015 Rise Set
Actual Time
Civil Twilight
Nautical Twilight
Astronomical Twilight
Moon
Length of Visible Light
Length of Day
Tomorrow will be .
, % of the Moon is Illuminated

Today's Extremes

Country Highs Country Lows

Community

WunderPhotos

Upload Photos

1,824,379 photos uploaded!

WunderBlogs® & News

Nearby

Air Quality

  Air Quality AQ Index Pollutant
Not available.

Snow Depth

Station Depth Elevation

Earthquake Activity

City Distance Mag. Time & Date
Minimum magnitude displayed is 2.5.

Coastal Water Temperatures

Place Temperature

Stations

Nearby Weather Stations

Station Location Temp. Windchill Dew Point Humidity Wind Precip. Elev Updated Type